createdAt,value
2018-05-24T00:01:37.713Z,24.30
2018-05-24T00:04:03.840Z,24.30
2018-05-24T00:06:29.958Z,24.30
2018-05-24T00:08:56.189Z,24.28
2018-05-24T00:11:22.349Z,24.26
2018-05-24T00:13:48.534Z,24.25
2018-05-24T00:16:14.650Z,24.24
2018-05-24T00:18:40.736Z,24.23
2018-05-24T00:21:07.202Z,24.21
2018-05-24T00:23:33.305Z,24.20
2018-05-24T00:25:59.533Z,24.18
2018-05-24T00:28:25.621Z,24.17
2018-05-24T00:30:51.719Z,24.16
2018-05-24T00:33:17.940Z,24.15
2018-05-24T00:35:44.053Z,24.14
2018-05-24T00:38:10.204Z,24.10
2018-05-24T00:40:36.622Z,24.08
2018-05-24T00:43:02.713Z,24.07
2018-05-24T00:45:29.176Z,24.07
2018-05-24T00:47:55.469Z,24.07
2018-05-24T00:50:21.571Z,24.05
2018-05-24T00:52:47.672Z,24.03
2018-05-24T00:55:26.422Z,24.02
2018-05-24T00:57:52.538Z,23.99
2018-05-24T01:00:18.938Z,23.97
2018-05-24T01:02:45.165Z,23.95
2018-05-24T01:05:11.259Z,23.95
2018-05-24T01:07:37.365Z,23.94
2018-05-24T01:10:03.503Z,23.93
2018-05-24T01:12:29.603Z,23.93
2018-05-24T01:14:55.729Z,23.92
2018-05-24T01:17:22.119Z,23.90
2018-05-24T01:19:48.241Z,23.88
2018-05-24T01:22:14.676Z,23.87
2018-05-24T01:24:40.777Z,23.86
2018-05-24T01:27:06.902Z,23.84
2018-05-24T01:29:32.993Z,23.83
2018-05-24T01:31:59.109Z,23.83
2018-05-24T01:34:25.280Z,23.82
2018-05-24T01:37:03.605Z,23.80
2018-05-24T01:39:30.053Z,23.81
2018-05-24T01:41:56.194Z,23.80
2018-05-24T01:44:22.289Z,23.78
2018-05-24T01:46:48.417Z,23.76
2018-05-24T01:49:14.625Z,23.74
2018-05-24T01:51:41.229Z,23.72
2018-05-24T01:54:07.329Z,23.71
2018-05-24T01:56:33.429Z,23.69
2018-05-24T01:58:59.559Z,23.68
2018-05-24T02:01:26.081Z,23.67
2018-05-24T02:03:52.171Z,23.67
2018-05-24T02:06:18.265Z,23.65
2018-05-24T02:08:44.439Z,23.62
2018-05-24T02:11:10.544Z,23.63
2018-05-24T02:13:36.739Z,23.63
2018-05-24T02:16:03.267Z,23.63
2018-05-24T02:18:29.385Z,23.62
2018-05-24T02:20:55.496Z,23.59
2018-05-24T02:23:21.628Z,23.59
2018-05-24T02:25:47.747Z,23.58
2018-05-24T02:28:13.986Z,23.58
2018-05-24T02:30:40.335Z,23.55
2018-05-24T02:33:06.454Z,23.55
2018-05-24T02:35:33.301Z,23.54
2018-05-24T02:37:59.414Z,23.55
2018-05-24T02:40:25.500Z,23.55
2018-05-24T02:42:51.632Z,23.54
2018-05-24T02:45:18.141Z,23.48
2018-05-24T02:47:44.249Z,23.41
2018-05-24T02:50:10.430Z,23.34
2018-05-24T02:52:36.903Z,23.35
2018-05-24T02:55:03.049Z,23.33
2018-05-24T02:57:29.201Z,23.31
2018-05-24T02:59:55.580Z,23.29
2018-05-24T03:02:21.694Z,23.30
2018-05-24T03:04:47.845Z,23.36
2018-05-24T03:07:13.940Z,23.39
2018-05-24T03:09:40.049Z,23.41
2018-05-24T03:12:06.621Z,23.43
2018-05-24T03:14:40.117Z,23.44
2018-05-24T03:17:06.247Z,23.44
2018-05-24T03:19:32.335Z,23.45
2018-05-24T03:21:58.515Z,23.45
2018-05-24T03:24:24.929Z,23.46
2018-05-24T03:26:51.029Z,23.46
2018-05-24T03:29:17.158Z,23.47
2018-05-24T03:31:43.257Z,23.47
2018-05-24T03:34:09.501Z,23.45
2018-05-24T03:36:35.603Z,23.40
2018-05-24T03:39:01.720Z,23.36
2018-05-24T03:41:27.905Z,23.35
2018-05-24T03:43:54.044Z,23.35
2018-05-24T03:46:23.111Z,23.38
2018-05-24T03:48:49.269Z,23.39
2018-05-24T03:51:15.426Z,23.38
2018-05-24T03:53:41.519Z,23.39
2018-05-24T03:56:08.344Z,23.39
2018-05-24T03:58:34.789Z,23.40
2018-05-24T04:01:13.979Z,23.36
2018-05-24T04:03:48.595Z,23.38
2018-05-24T04:06:14.867Z,23.38
2018-05-24T04:08:40.979Z,23.39
2018-05-24T04:11:07.087Z,23.38
2018-05-24T04:13:33.303Z,23.36
2018-05-24T04:15:59.493Z,23.37
2018-05-24T04:18:25.628Z,23.38
2018-05-24T04:20:52.040Z,23.38
2018-05-24T04:23:18.187Z,23.38
2018-05-24T04:25:44.313Z,23.36
2018-05-24T04:28:10.423Z,23.36
2018-05-24T04:30:36.625Z,23.36
2018-05-24T04:33:02.870Z,23.37
2018-05-24T04:35:28.910Z,23.37
2018-05-24T04:37:55.324Z,23.37
2018-05-24T04:40:21.491Z,23.34
2018-05-24T04:42:47.989Z,23.31
2018-05-24T04:45:14.105Z,23.29
2018-05-24T04:47:40.445Z,23.28
2018-05-24T04:50:06.682Z,23.27
2018-05-24T04:52:32.778Z,23.27
2018-05-24T04:54:58.890Z,23.25
2018-05-24T04:57:25.034Z,23.23
2018-05-24T04:59:51.190Z,23.21
2018-05-24T05:02:17.336Z,23.21
2018-05-24T05:04:43.443Z,23.21
2018-05-24T05:07:09.565Z,23.22
2018-05-24T05:09:35.710Z,23.24
2018-05-24T05:12:01.832Z,23.24
2018-05-24T05:14:27.977Z,23.23
2018-05-24T05:16:54.226Z,23.22
2018-05-24T05:19:20.450Z,23.30
2018-05-24T05:21:46.603Z,23.34
2018-05-24T05:24:13.543Z,23.38
2018-05-24T05:26:39.771Z,23.38
2018-05-24T05:29:05.881Z,23.39
2018-05-24T05:31:32.036Z,23.39
2018-05-24T05:33:58.179Z,23.38
2018-05-24T05:36:24.276Z,23.41
2018-05-24T05:38:50.513Z,23.44
2018-05-24T05:41:16.614Z,23.49
2018-05-24T05:43:43.104Z,23.49
2018-05-24T05:46:09.210Z,23.50
2018-05-24T05:48:35.312Z,23.50
2018-05-24T05:51:01.544Z,23.51
2018-05-24T05:53:27.785Z,23.50
2018-05-24T05:55:53.887Z,23.55
2018-05-24T05:58:20.130Z,23.59
2018-05-24T06:00:46.222Z,23.61
2018-05-24T06:03:12.317Z,23.64
2018-05-24T06:05:38.450Z,23.66
2018-05-24T06:08:04.614Z,23.66
2018-05-24T06:10:30.771Z,23.68
2018-05-24T06:12:56.880Z,23.69
2018-05-24T06:15:23.020Z,23.68
2018-05-24T06:17:49.456Z,23.66
2018-05-24T06:20:15.556Z,23.69
2018-05-24T06:22:41.680Z,23.70
2018-05-24T06:25:07.873Z,23.70
2018-05-24T06:27:34.089Z,23.72
2018-05-24T06:30:00.190Z,23.75
2018-05-24T06:32:26.273Z,23.77
2018-05-24T06:34:52.415Z,23.79
2018-05-24T06:37:18.678Z,23.80
2018-05-24T06:39:44.699Z,23.82
2018-05-24T06:42:11.117Z,23.82
2018-05-24T06:44:37.237Z,23.82
2018-05-24T06:47:03.364Z,23.84
2018-05-24T06:49:29.900Z,23.85
2018-05-24T06:51:55.989Z,23.87
2018-05-24T06:54:22.316Z,23.89
2018-05-24T06:56:48.574Z,23.90
2018-05-24T06:59:14.726Z,23.92
2018-05-24T07:01:40.825Z,23.93
2018-05-24T07:04:07.273Z,23.95
2018-05-24T07:06:33.410Z,23.96
2018-05-24T07:08:59.510Z,23.96
2018-05-24T07:11:25.975Z,23.97
2018-05-24T07:13:52.080Z,23.98
2018-05-24T07:16:18.516Z,23.99
2018-05-24T07:18:44.884Z,24.00
2018-05-24T07:21:11.002Z,24.00
2018-05-24T07:23:37.091Z,24.02
2018-05-24T07:26:03.665Z,24.04
2018-05-24T07:28:29.759Z,24.07
2018-05-24T07:30:55.849Z,24.09
2018-05-24T07:33:29.281Z,24.09
2018-05-24T07:35:55.714Z,24.10
2018-05-24T07:38:21.817Z,24.12
2018-05-24T07:40:47.958Z,24.13
2018-05-24T07:43:14.468Z,24.13
2018-05-24T07:45:40.634Z,24.16
2018-05-24T07:48:06.689Z,24.16
2018-05-24T07:50:33.080Z,24.17
2018-05-24T07:52:59.513Z,24.18
2018-05-24T07:55:25.638Z,24.19
2018-05-24T07:57:51.768Z,24.21
2018-05-24T08:00:18.197Z,24.21
2018-05-24T08:02:44.434Z,24.22
2018-05-24T08:07:47.658Z,24.25
2018-05-24T08:10:13.762Z,24.26
2018-05-24T08:12:39.867Z,24.27
2018-05-24T08:15:06.464Z,24.28
2018-05-24T08:17:32.594Z,24.29
2018-05-24T08:19:58.753Z,24.29
2018-05-24T08:22:24.944Z,24.31
2018-05-24T08:24:51.032Z,24.33
2018-05-24T08:27:17.151Z,24.33
2018-05-24T08:29:43.684Z,24.33
2018-05-24T08:32:09.791Z,24.35
2018-05-24T08:34:36.248Z,24.38
2018-05-24T08:37:02.444Z,24.40
2018-05-24T08:39:28.910Z,24.41
2018-05-24T08:41:55.335Z,24.41
2018-05-24T08:44:21.434Z,24.43
2018-05-24T08:46:47.793Z,24.43
2018-05-24T08:49:13.928Z,24.44
2018-05-24T08:51:40.253Z,24.46
2018-05-24T08:54:06.614Z,24.47
2018-05-24T08:56:32.752Z,24.47
2018-05-24T08:58:58.855Z,24.49
2018-05-24T09:01:25.286Z,24.50
2018-05-24T09:03:51.606Z,24.51
2018-05-24T09:06:18.032Z,24.51
2018-05-24T09:08:44.266Z,24.52
2018-05-24T09:11:10.390Z,24.54
2018-05-24T09:13:36.499Z,24.55
2018-05-24T09:16:02.724Z,24.57
2018-05-24T09:18:28.881Z,24.58
2018-05-24T09:20:55.297Z,24.58
2018-05-24T09:23:21.398Z,24.59
2018-05-24T09:25:47.521Z,24.60
2018-05-24T09:28:13.649Z,24.61
2018-05-24T09:30:40.000Z,24.61
2018-05-24T09:33:06.539Z,24.63
2018-05-24T09:35:32.676Z,24.63
2018-05-24T09:37:58.782Z,24.63
2018-05-24T09:40:24.889Z,24.64
2018-05-24T09:42:51.126Z,24.66
2018-05-24T09:45:17.220Z,24.67
2018-05-24T09:47:43.406Z,24.69
2018-05-24T09:50:09.829Z,24.70
2018-05-24T09:52:35.938Z,24.71
2018-05-24T09:55:02.041Z,24.74
2018-05-24T09:57:28.173Z,24.75
2018-05-24T09:59:54.291Z,24.76
2018-05-24T10:02:20.645Z,24.78
2018-05-24T10:04:46.835Z,24.79
2018-05-24T10:07:12.920Z,24.81
2018-05-24T10:09:39.013Z,24.82
2018-05-24T10:12:05.527Z,24.83
2018-05-24T10:14:31.616Z,24.84
2018-05-24T10:16:57.732Z,24.85
2018-05-24T10:19:23.974Z,24.86
2018-05-24T10:21:50.105Z,24.87
2018-05-24T10:24:16.205Z,24.89
2018-05-24T10:26:42.636Z,24.91
2018-05-24T10:29:09.071Z,24.95
2018-05-24T10:31:36.421Z,24.98
2018-05-24T10:34:02.562Z,25.01
2018-05-24T10:36:28.816Z,25.03
2018-05-24T10:38:55.211Z,25.05
2018-05-24T10:41:21.573Z,25.08
2018-05-24T10:43:47.987Z,25.11
2018-05-24T10:46:14.336Z,25.14
2018-05-24T10:48:40.555Z,25.17
2018-05-24T10:51:06.748Z,25.19
2018-05-24T10:53:32.838Z,25.24
2018-05-24T10:55:59.051Z,25.22
2018-05-24T10:58:25.570Z,25.18
2018-05-24T11:00:51.769Z,25.14
2018-05-24T11:03:18.155Z,25.13
2018-05-24T11:05:44.765Z,25.14
2018-05-24T11:08:10.968Z,25.14
2018-05-24T11:10:37.315Z,25.17
2018-05-24T11:13:03.515Z,25.19
2018-05-24T11:15:29.762Z,25.22
2018-05-24T11:17:56.583Z,25.27
2018-05-24T11:20:23.060Z,25.33
2018-05-24T11:22:49.260Z,25.40
2018-05-24T11:25:15.521Z,25.46
2018-05-24T11:27:41.760Z,25.51
2018-05-24T11:30:14.804Z,25.56
2018-05-24T11:32:41.052Z,25.60
2018-05-24T11:35:07.276Z,25.63
2018-05-24T11:37:33.489Z,25.69
2018-05-24T11:40:00.051Z,25.73
2018-05-24T11:42:26.246Z,25.74
2018-05-24T11:44:52.420Z,25.76
2018-05-24T11:47:18.645Z,25.77
2018-05-24T11:49:45.166Z,25.79
2018-05-24T11:52:11.421Z,25.83
2018-05-24T11:54:37.525Z,25.85
2018-05-24T11:57:03.629Z,25.87
2018-05-24T11:59:29.802Z,25.89
2018-05-24T12:01:55.951Z,25.92
2018-05-24T12:04:22.045Z,25.94
2018-05-24T12:06:48.427Z,25.99
2018-05-24T12:09:14.666Z,26.01
2018-05-24T12:11:40.765Z,26.05
2018-05-24T12:14:06.857Z,26.07
2018-05-24T12:16:33.037Z,26.10
2018-05-24T12:18:59.468Z,26.13
2018-05-24T12:21:25.565Z,26.15
2018-05-24T12:23:51.737Z,26.17
2018-05-24T12:26:17.897Z,26.22
2018-05-24T12:28:44.279Z,26.26
2018-05-24T12:31:10.408Z,26.30
2018-05-24T12:33:36.609Z,26.34
2018-05-24T12:36:02.728Z,26.37
2018-05-24T12:38:28.834Z,26.39
2018-05-24T12:40:54.969Z,26.43
2018-05-24T12:43:21.220Z,26.46
2018-05-24T12:45:47.423Z,26.49
2018-05-24T12:48:13.536Z,26.52
2018-05-24T12:50:39.682Z,26.54
2018-05-24T12:53:05.803Z,26.60
2018-05-24T12:55:31.981Z,26.64
2018-05-24T12:57:58.149Z,26.67
2018-05-24T13:00:24.222Z,26.70
2018-05-24T13:02:50.376Z,26.71
2018-05-24T13:05:16.491Z,26.72
2018-05-24T13:07:43.042Z,26.74
2018-05-24T13:10:09.413Z,26.76
2018-05-24T13:12:35.534Z,26.79
2018-05-24T13:15:01.691Z,26.81
2018-05-24T13:17:27.800Z,26.84
2018-05-24T13:19:53.918Z,26.86
2018-05-24T13:22:20.069Z,26.89
2018-05-24T13:24:46.218Z,26.90
2018-05-24T13:27:12.361Z,26.92
2018-05-24T13:29:38.483Z,26.95
2018-05-24T13:32:04.728Z,26.97
2018-05-24T13:34:30.848Z,27.00
2018-05-24T13:36:57.218Z,27.03
2018-05-24T13:39:23.690Z,27.07
2018-05-24T13:41:50.268Z,27.11
2018-05-24T13:44:16.462Z,27.14
2018-05-24T13:46:42.617Z,27.17
2018-05-24T13:49:08.762Z,27.20
2018-05-24T13:51:34.876Z,27.22
2018-05-24T13:54:01.059Z,27.20
2018-05-24T13:56:27.722Z,27.16
2018-05-24T13:58:53.831Z,27.12
2018-05-24T14:01:19.952Z,27.09
2018-05-24T14:03:46.184Z,27.07
2018-05-24T14:06:12.321Z,27.08
2018-05-24T14:08:38.426Z,27.09
2018-05-24T14:11:04.568Z,27.13
2018-05-24T14:13:30.709Z,27.16
2018-05-24T14:15:56.827Z,27.21
2018-05-24T14:18:23.021Z,27.24
2018-05-24T14:20:49.134Z,27.28
2018-05-24T14:23:15.232Z,27.35
2018-05-24T14:25:41.392Z,27.43
2018-05-24T14:28:07.524Z,27.54
2018-05-24T14:30:33.862Z,27.70
2018-05-24T14:33:00.018Z,27.89
2018-05-24T14:35:26.210Z,28.47
2018-05-24T14:37:52.315Z,30.15
2018-05-24T14:40:18.425Z,31.69
2018-05-24T14:42:44.569Z,32.53
2018-05-24T14:45:10.696Z,32.84
2018-05-24T14:47:36.825Z,32.55
2018-05-24T14:50:02.934Z,31.95
2018-05-24T14:52:29.072Z,30.93
2018-05-24T14:54:55.194Z,30.03
2018-05-24T14:57:21.349Z,29.42
2018-05-24T14:59:47.460Z,29.30
2018-05-24T15:02:13.560Z,29.20
2018-05-24T15:04:40.152Z,29.03
2018-05-24T15:07:06.486Z,29.03
2018-05-24T15:09:32.597Z,28.87
2018-05-24T15:11:58.750Z,28.65
2018-05-24T15:14:24.883Z,28.37
2018-05-24T15:16:51.025Z,28.19
2018-05-24T15:19:17.133Z,28.08
2018-05-24T15:21:43.608Z,28.01
2018-05-24T15:24:09.702Z,27.94
2018-05-24T15:26:35.839Z,27.89
2018-05-24T15:29:01.986Z,27.84
2018-05-24T15:31:28.090Z,27.81
2018-05-24T15:33:54.275Z,27.78
2018-05-24T15:36:20.384Z,27.77
2018-05-24T15:38:46.490Z,27.76
2018-05-24T15:41:12.632Z,27.75
2018-05-24T15:43:38.763Z,27.77
2018-05-24T15:46:05.133Z,27.74
2018-05-24T15:48:31.253Z,27.73
2018-05-24T15:50:57.381Z,27.73
2018-05-24T15:53:23.564Z,27.73
2018-05-24T15:55:49.894Z,27.77
2018-05-24T15:58:16.058Z,27.75
2018-05-24T16:00:42.424Z,27.82
2018-05-24T16:03:08.550Z,27.92
2018-05-24T16:05:34.891Z,28.16
2018-05-24T16:08:01.068Z,28.51
2018-05-24T16:10:27.266Z,28.42
2018-05-24T16:12:53.386Z,28.37
2018-05-24T16:15:19.497Z,28.33
2018-05-24T16:17:45.654Z,28.28
2018-05-24T16:20:11.773Z,28.20
2018-05-24T16:22:37.926Z,28.10
2018-05-24T16:25:04.249Z,28.07
2018-05-24T16:27:30.382Z,28.07
2018-05-24T16:29:56.539Z,28.01
2018-05-24T16:32:22.651Z,27.91
2018-05-24T16:34:49.148Z,27.86
2018-05-24T16:37:15.432Z,27.82
2018-05-24T16:39:41.551Z,27.85
2018-05-24T16:42:07.669Z,27.96
2018-05-24T16:44:34.029Z,28.09
2018-05-24T16:47:00.170Z,28.17
2018-05-24T16:49:26.423Z,29.27
2018-05-24T16:51:53.645Z,29.66
2018-05-24T16:54:19.825Z,30.17
2018-05-24T16:56:45.957Z,30.54
2018-05-24T16:59:12.058Z,30.75
2018-05-24T17:01:38.157Z,30.66
2018-05-24T17:04:04.555Z,30.28
2018-05-24T17:06:30.812Z,29.74
2018-05-24T17:08:57.176Z,29.52
2018-05-24T17:11:23.315Z,29.41
2018-05-24T17:13:49.455Z,29.54
2018-05-24T17:16:15.715Z,29.63
2018-05-24T17:18:42.278Z,29.58
2018-05-24T17:21:08.624Z,29.46
2018-05-24T17:23:35.141Z,29.39
2018-05-24T17:26:01.317Z,29.35
2018-05-24T17:28:27.451Z,29.30
2018-05-24T17:30:53.610Z,29.29
2018-05-24T17:33:19.726Z,29.30
2018-05-24T17:35:46.157Z,29.28
2018-05-24T17:38:12.327Z,29.28
2018-05-24T17:40:38.465Z,29.29
2018-05-24T17:43:05.049Z,29.29
2018-05-24T17:45:31.150Z,29.30
2018-05-24T17:47:57.281Z,29.29
2018-05-24T17:50:23.725Z,29.29
2018-05-24T17:52:49.985Z,29.20
2018-05-24T17:55:16.153Z,29.11
2018-05-24T17:57:42.277Z,29.06
2018-05-24T18:00:08.434Z,28.99
2018-05-24T18:02:34.570Z,28.92
2018-05-24T18:05:00.691Z,28.84
2018-05-24T18:07:27.051Z,28.74
2018-05-24T18:09:53.239Z,28.66
2018-05-24T18:12:19.679Z,28.59
2018-05-24T18:14:45.805Z,28.57
2018-05-24T18:17:11.931Z,28.53
2018-05-24T18:19:38.369Z,28.43
2018-05-24T18:22:04.526Z,28.37
2018-05-24T18:24:30.661Z,28.29
2018-05-24T18:26:57.835Z,28.24
2018-05-24T18:29:24.203Z,28.19
2018-05-24T18:31:50.365Z,28.12
2018-05-24T18:34:16.482Z,28.07
2018-05-24T18:36:42.641Z,28.02
2018-05-24T18:39:08.890Z,27.93
2018-05-24T18:41:35.355Z,27.82
2018-05-24T18:44:01.455Z,27.75
2018-05-24T18:46:27.981Z,27.70
2018-05-24T18:48:54.124Z,27.64
2018-05-24T18:51:20.225Z,27.61
2018-05-24T18:53:46.360Z,27.58
2018-05-24T18:56:12.489Z,27.55
2018-05-24T18:58:38.629Z,27.51
2018-05-24T19:01:04.744Z,27.45
2018-05-24T19:03:30.870Z,27.36
2018-05-24T19:05:57.021Z,27.29
2018-05-24T19:08:23.129Z,27.20
2018-05-24T19:10:49.660Z,27.13
2018-05-24T19:13:15.777Z,27.08
2018-05-24T19:15:42.243Z,27.05
2018-05-24T19:18:08.404Z,27.00
2018-05-24T19:20:34.501Z,26.97
2018-05-24T19:23:00.651Z,26.93
2018-05-24T19:25:27.234Z,26.89
2018-05-24T19:27:53.326Z,26.85
2018-05-24T19:30:19.430Z,26.81
2018-05-24T19:32:47.595Z,26.77
2018-05-24T19:35:13.768Z,26.75
2018-05-24T19:37:40.477Z,26.72
2018-05-24T19:40:06.682Z,26.69
2018-05-24T19:42:32.793Z,26.66
2018-05-24T19:44:58.940Z,26.64
2018-05-24T19:47:25.182Z,26.62
2018-05-24T19:49:51.281Z,26.59
2018-05-24T19:52:17.388Z,26.57
2018-05-24T19:54:43.637Z,26.55
2018-05-24T19:57:09.738Z,26.54
2018-05-24T19:59:35.865Z,26.51
2018-05-24T20:02:02.399Z,26.49
2018-05-24T20:04:29.068Z,26.46
2018-05-24T20:06:56.308Z,26.43
2018-05-24T20:09:23.255Z,26.41
2018-05-24T20:11:50.199Z,26.37
2018-05-24T20:14:17.560Z,26.35
2018-05-24T20:16:44.602Z,26.29
2018-05-24T20:19:11.477Z,26.30
2018-05-24T20:21:38.493Z,26.26
2018-05-24T20:24:05.437Z,26.23
2018-05-24T20:26:32.760Z,26.21
2018-05-24T20:28:59.771Z,26.18
2018-05-24T20:31:26.578Z,26.15
2018-05-24T20:33:53.372Z,26.13
2018-05-24T20:36:20.185Z,26.07
2018-05-24T20:38:47.307Z,26.00
2018-05-24T20:41:14.253Z,25.95
2018-05-24T20:43:41.094Z,25.90
2018-05-24T20:46:07.873Z,25.85
2018-05-24T20:48:34.985Z,25.81
2018-05-24T20:51:01.826Z,25.78
2018-05-24T20:53:28.709Z,25.74
2018-05-24T20:55:56.024Z,25.70
2018-05-24T20:58:22.868Z,25.67
2018-05-24T21:00:50.324Z,25.62
2018-05-24T21:03:17.269Z,25.60
2018-05-24T21:05:44.623Z,25.56
2018-05-24T21:08:11.979Z,25.52
2018-05-24T21:10:38.924Z,25.49
2018-05-24T21:13:05.868Z,25.46
2018-05-24T21:15:32.815Z,25.43
2018-05-24T21:17:59.654Z,25.41
2018-05-24T21:20:26.527Z,25.37
2018-05-24T21:22:53.444Z,25.35
2018-05-24T21:25:20.324Z,25.32
2018-05-24T21:27:47.128Z,25.30
2018-05-24T21:30:14.072Z,25.28
2018-05-24T21:32:40.915Z,25.25
2018-05-24T21:35:08.683Z,25.23
2018-05-24T21:37:35.523Z,25.20
2018-05-24T21:40:02.980Z,25.19
2018-05-24T21:42:30.129Z,25.17
2018-05-24T21:44:56.885Z,25.16
2018-05-24T21:47:23.817Z,25.14
2018-05-24T21:49:50.775Z,25.13
2018-05-24T21:52:17.600Z,25.11
2018-05-24T21:54:44.334Z,25.10
2018-05-24T21:57:11.185Z,25.08
2018-05-24T21:59:37.978Z,25.08
2018-05-24T22:02:04.831Z,25.05
2018-05-24T22:04:31.814Z,25.01
2018-05-24T22:07:01.782Z,24.98
2018-05-24T22:09:29.485Z,24.95
2018-05-24T22:11:56.335Z,24.95
2018-05-24T22:14:23.384Z,24.93
2018-05-24T22:16:50.328Z,24.91
2018-05-24T22:19:17.541Z,24.90
2018-05-24T22:21:44.300Z,24.88
2018-05-24T22:24:11.777Z,24.87
2018-05-24T22:26:38.991Z,24.86
2018-05-24T22:29:05.799Z,24.85
2018-05-24T22:31:32.499Z,24.85
2018-05-24T22:33:59.456Z,24.84
2018-05-24T22:36:26.667Z,24.82
2018-05-24T22:38:53.318Z,24.82
2018-05-24T22:41:20.324Z,24.81
2018-05-24T22:43:46.664Z,24.80
2018-05-24T22:46:13.021Z,24.80
2018-05-24T22:48:39.223Z,24.78
2018-05-24T22:51:05.340Z,24.79
2018-05-24T22:53:31.577Z,24.77
2018-05-24T22:55:57.680Z,24.77
2018-05-24T22:58:23.772Z,24.76
2018-05-24T23:00:50.191Z,24.74
2018-05-24T23:03:16.356Z,24.74
2018-05-24T23:05:42.463Z,24.73
2018-05-24T23:08:08.582Z,24.73
2018-05-24T23:10:34.818Z,24.72
2018-05-24T23:13:00.918Z,24.71
2018-05-24T23:15:27.022Z,24.70
2018-05-24T23:17:53.486Z,24.69
2018-05-24T23:20:19.713Z,24.66
2018-05-24T23:22:45.822Z,24.65
2018-05-24T23:25:11.925Z,24.66
2018-05-24T23:27:38.297Z,24.64
2018-05-24T23:30:04.388Z,24.63
2018-05-24T23:32:30.747Z,24.64
2018-05-24T23:34:57.182Z,24.63
2018-05-24T23:37:23.316Z,24.62
2018-05-24T23:39:49.563Z,24.58
2018-05-24T23:42:15.884Z,24.56
2018-05-24T23:44:41.968Z,24.55
2018-05-24T23:47:08.121Z,24.55
2018-05-24T23:49:34.209Z,24.54
2018-05-24T23:52:00.576Z,24.53
2018-05-24T23:54:26.701Z,24.55
2018-05-24T23:56:53.136Z,24.56
2018-05-24T23:59:19.563Z,24.56
